createdAt,value
2019-04-21T18:22:43.541Z,25.74
2019-04-21T18:25:01.590Z,27.37
2019-04-21T18:27:11.409Z,27.37
2019-04-21T18:29:23.460Z,28.06
2019-04-21T18:31:42.642Z,28.03
2019-04-21T18:33:59.005Z,28.80
2019-04-21T18:36:08.488Z,29.07
2019-04-21T18:38:28.082Z,28.86
2019-04-21T18:40:37.642Z,29.07
2019-04-21T18:43:30.814Z,30.33
2019-04-21T18:45:44.335Z,30.67
2019-04-21T18:47:50.050Z,30.38
2019-04-21T18:49:52.372Z,31.25
2019-04-21T18:52:16.811Z,30.83
2019-04-21T18:54:37.418Z,32.23
2019-04-21T18:56:33.777Z,31.99
2019-04-21T18:58:44.759Z,32.49
2019-04-21T19:01:03.237Z,32.45
2019-04-21T19:03:11.510Z,32.30
2019-04-21T19:05:24.615Z,32.46
2019-04-21T19:07:58.443Z,32.75
2019-04-21T19:12:23.750Z,33.32
2019-04-21T19:14:35.507Z,33.73
2019-04-21T19:16:49.705Z,33.92
2019-04-21T19:19:09.780Z,34.43
2019-04-21T19:21:10.153Z,34.33
2019-04-21T19:23:36.327Z,34.71
2019-04-21T19:25:41.301Z,35.19
2019-04-21T19:27:48.830Z,35.37
2019-04-21T19:30:16.410Z,35.35
2019-04-21T19:32:19.824Z,35.57
2019-04-21T19:34:19.831Z,35.65
2019-04-21T19:36:23.716Z,36.06
2019-04-21T19:38:46.812Z,36.02
2019-04-21T19:41:01.700Z,35.92
2019-04-21T19:43:07.859Z,36.15
2019-04-21T19:45:27.910Z,36.73
2019-04-21T19:47:44.924Z,36.75
2019-04-21T19:50:04.672Z,37.19
2019-04-21T19:51:59.632Z,37.52
2019-04-21T19:54:18.940Z,37.49
2019-04-21T19:56:19.444Z,38.13
2019-04-21T19:58:33.765Z,37.28
2019-04-21T20:00:44.508Z,37.03
2019-04-21T20:02:56.614Z,37.28
2019-04-21T20:05:13.629Z,37.71
2019-04-21T20:07:32.695Z,37.69
2019-04-21T20:09:48.828Z,39.91
2019-04-21T20:11:58.107Z,38.09
2019-04-21T20:16:35.201Z,37.99
2019-04-21T20:18:32.820Z,37.86
2019-04-21T20:20:39.613Z,37.88
2019-04-21T20:22:53.471Z,38.13
2019-04-21T20:25:10.648Z,38.75
2019-04-21T20:27:30.827Z,38.50
2019-04-21T20:29:53.902Z,39.12
2019-04-21T20:32:08.390Z,38.30
2019-04-21T20:34:22.974Z,38.76
2019-04-21T20:36:26.217Z,39.91
2019-04-21T20:38:35.587Z,39.97
2019-04-21T20:40:48.107Z,39.80
2019-04-21T20:43:10.128Z,40.11
2019-04-21T20:47:25.537Z,39.95
2019-04-21T20:49:40.870Z,40.24
2019-04-21T20:52:08.128Z,40.44
2019-04-21T20:54:12.726Z,40.42
2019-04-21T20:56:15.996Z,41.55
2019-04-21T20:58:34.815Z,41.64
2019-04-21T21:00:56.189Z,41.51
2019-04-21T21:03:07.652Z,42.23
2019-04-21T21:05:09.205Z,41.94
2019-04-21T21:07:41.680Z,41.47
2019-04-21T21:09:41.340Z,41.58
2019-04-21T21:12:10.173Z,41.09
2019-04-21T21:14:07.405Z,41.06
2019-04-21T21:16:29.736Z,40.86
2019-04-21T21:18:58.177Z,41.26
2019-04-21T21:20:53.042Z,41.63
2019-04-21T21:22:57.484Z,42.14
2019-04-21T21:25:21.349Z,42.38
2019-04-21T21:27:19.566Z,42.35
2019-04-21T21:29:33.538Z,42.16
2019-04-21T21:31:59.579Z,42.08
2019-04-21T21:34:09.538Z,42.23
2019-04-21T21:36:35.295Z,42.75
2019-04-21T21:38:31.532Z,42.21
2019-04-21T21:40:44.020Z,42.12
2019-04-21T21:42:43.791Z,41.87
2019-04-21T21:44:59.833Z,42.47
2019-04-21T21:47:20.544Z,42.95
2019-04-21T21:49:33.691Z,43.38
2019-04-21T21:51:43.256Z,43.29
2019-04-21T21:53:44.399Z,43.25
2019-04-21T21:55:56.391Z,43.48
2019-04-21T21:58:08.538Z,43.52
2019-04-21T22:00:24.159Z,43.62
2019-04-21T22:02:43.892Z,43.57
2019-04-21T22:04:57.914Z,43.03
2019-04-21T22:07:07.241Z,43.38
2019-04-21T22:09:14.552Z,43.51
2019-04-21T22:11:26.305Z,43.52
2019-04-21T22:13:46.890Z,43.25
2019-04-21T22:15:59.450Z,44.19
2019-04-21T22:18:25.910Z,44.58
2019-04-21T22:20:33.423Z,44.17
2019-04-21T22:22:41.726Z,44.47
2019-04-21T22:24:53.444Z,43.33
2019-04-21T22:26:54.856Z,44.25
2019-04-21T22:29:05.822Z,44.54
2019-04-21T22:31:21.187Z,44.64
2019-04-21T22:33:34.520Z,45.09
2019-04-21T22:35:49.633Z,45.78
2019-04-21T22:38:12.417Z,46.15
2019-04-21T22:40:21.839Z,46.82
2019-04-21T22:42:27.192Z,47.64
2019-04-21T22:44:34.508Z,47.72
2019-04-21T22:46:54.891Z,47.45
2019-04-21T22:49:06.811Z,47.41
2019-04-21T22:51:26.595Z,47.69
2019-04-21T22:53:41.425Z,47.25
2019-04-21T22:55:49.497Z,47.55
2019-04-21T22:58:01.578Z,47.81
2019-04-21T23:00:16.714Z,47.72
2019-04-21T23:02:30.446Z,48.18
2019-04-21T23:04:46.256Z,48.13
2019-04-21T23:06:59.303Z,48.49
2019-04-21T23:09:06.655Z,48.62
2019-04-21T23:11:18.389Z,48.59
2019-04-21T23:13:30.897Z,48.08
2019-04-21T23:15:50.629Z,48.31
2019-04-21T23:18:17.711Z,48.51
2019-04-21T23:20:33.139Z,49.35
2019-04-21T23:22:52.640Z,49.81
2019-04-21T23:24:59.527Z,49.75
2019-04-21T23:26:59.777Z,49.38
2019-04-21T23:29:17.441Z,49.41
2019-04-21T23:31:34.425Z,49.47
2019-04-21T23:33:27.538Z,49.64
2019-04-21T23:35:43.456Z,50.33
2019-04-21T23:37:57.725Z,50.49
2019-04-21T23:40:11.957Z,50.25
2019-04-21T23:42:25.857Z,50.20
2019-04-21T23:44:33.854Z,50.56
2019-04-21T23:46:44.439Z,51.09
2019-04-21T23:49:13.947Z,51.76
2019-04-21T23:51:21.860Z,51.34
2019-04-21T23:53:23.579Z,51.32
2019-04-21T23:55:35.039Z,51.27
2019-04-21T23:57:48.401Z,51.12
